createdAt,value
2019-03-06T00:04:39.836Z,99.90
2019-03-06T00:09:33.432Z,99.90
2019-03-06T00:14:27.128Z,99.90
2019-03-06T00:24:12.144Z,99.90
2019-03-06T00:29:03.559Z,99.90
2019-03-06T00:33:54.947Z,99.90
2019-03-06T00:38:48.560Z,99.90
2019-03-06T00:43:39.946Z,99.90
2019-03-06T00:48:31.384Z,99.90
2019-03-06T00:53:24.972Z,99.90
2019-03-06T00:58:16.444Z,99.90
2019-03-06T01:03:07.803Z,99.90
2019-03-06T01:07:59.168Z,99.90
2019-03-06T01:12:50.537Z,99.90
2019-03-06T01:17:41.978Z,99.90
2019-03-06T01:22:33.316Z,99.90
2019-03-06T01:27:24.694Z,99.90
2019-03-06T01:32:16.568Z,99.90
2019-03-06T01:37:07.461Z,99.90
2019-03-06T01:41:58.910Z,99.90
2019-03-06T01:46:52.483Z,99.90
2019-03-06T01:51:43.941Z,99.90
2019-03-06T01:56:35.352Z,99.90
2019-03-06T02:06:20.420Z,99.90
2019-03-06T02:11:11.838Z,99.90
2019-03-06T02:16:03.209Z,99.90
2019-03-06T02:20:54.577Z,99.90
2019-03-06T02:25:48.193Z,99.90
2019-03-06T02:30:39.662Z,99.90
2019-03-06T02:35:31.000Z,99.90
2019-03-06T02:40:22.416Z,99.90
2019-03-06T02:45:13.802Z,99.90
2019-03-06T02:50:07.437Z,99.90
2019-03-06T02:54:58.885Z,99.90
2019-03-06T02:59:50.290Z,99.90
2019-03-06T03:04:41.617Z,99.90
2019-03-06T03:09:32.983Z,99.90
2019-03-06T03:14:24.442Z,99.90
2019-03-06T03:24:09.738Z,99.90
2019-03-06T03:29:00.857Z,99.90
2019-03-06T03:33:52.259Z,99.90
2019-03-06T03:38:45.810Z,99.90
2019-03-06T03:43:37.292Z,99.90
2019-03-06T03:48:28.735Z,99.90
2019-03-06T03:53:20.096Z,99.90
2019-03-06T03:58:11.697Z,99.90
2019-03-06T04:03:02.896Z,99.90
2019-03-06T04:07:54.250Z,99.90
2019-03-06T04:12:45.705Z,99.90
2019-03-06T04:17:37.071Z,99.90
2019-03-06T04:22:28.491Z,99.90
2019-03-06T04:27:19.932Z,99.90
2019-03-06T04:32:11.617Z,99.90
2019-03-06T04:37:02.720Z,99.90
2019-03-06T04:41:54.045Z,99.90
2019-03-06T04:46:45.418Z,99.90
2019-03-06T04:51:39.047Z,99.90
2019-03-06T04:56:30.484Z,99.90
2019-03-06T05:06:15.635Z,99.90
2019-03-06T05:11:07.029Z,99.90
2019-03-06T05:15:58.382Z,99.90
2019-03-06T05:20:52.057Z,99.90
2019-03-06T05:25:43.525Z,99.90
2019-03-06T05:30:34.869Z,99.90
2019-03-06T05:35:26.907Z,99.90
2019-03-06T05:40:17.683Z,99.90
2019-03-06T05:45:09.072Z,99.90
2019-03-06T05:50:00.951Z,99.90
2019-03-06T05:54:51.888Z,99.90
2019-03-06T05:59:43.327Z,99.90
2019-03-06T06:04:34.737Z,99.90
2019-03-06T06:09:28.323Z,99.90
2019-03-06T06:14:19.824Z,99.90
2019-03-06T06:19:11.147Z,99.90
2019-03-06T06:24:02.563Z,99.90
2019-03-06T06:28:53.912Z,99.90
2019-03-06T06:33:45.413Z,99.90
2019-03-06T06:38:38.980Z,99.90
2019-03-06T06:43:30.409Z,99.90
2019-03-06T06:48:21.888Z,99.90
2019-03-06T06:53:13.897Z,99.90
2019-03-06T06:58:04.653Z,99.90
2019-03-06T07:02:56.103Z,99.90
2019-03-06T07:07:48.095Z,99.90
2019-03-06T07:12:38.882Z,99.90
2019-03-06T07:17:30.277Z,99.90
2019-03-06T07:22:21.659Z,99.90
2019-03-06T07:27:13.120Z,99.90
2019-03-06T07:32:04.499Z,99.90
2019-03-06T07:36:55.838Z,99.90
2019-03-06T07:41:47.229Z,99.90
2019-03-06T07:46:38.620Z,98.90
2019-03-06T07:51:32.328Z,96.70
2019-03-06T07:56:21.519Z,97.00
2019-03-06T08:01:17.796Z,94.10
2019-03-06T08:06:04.300Z,93.80
2019-03-06T08:10:55.659Z,92.30
2019-03-06T08:15:47.108Z,91.60
2019-03-06T08:20:38.495Z,89.40
2019-03-06T08:25:29.851Z,87.20
2019-03-06T08:30:21.231Z,77.30
2019-03-06T08:35:12.694Z,76.90
2019-03-06T08:40:04.118Z,77.20
2019-03-06T08:44:55.486Z,69.90
2019-03-06T08:49:46.954Z,63.00
2019-03-06T08:54:38.707Z,60.90
2019-03-06T08:59:29.723Z,59.60
2019-03-06T09:04:21.109Z,59.80
2019-03-06T09:09:12.911Z,63.00
2019-03-06T09:14:03.899Z,56.60
2019-03-06T09:18:55.366Z,57.30
2019-03-06T09:23:46.719Z,55.90
2019-03-06T09:28:38.096Z,58.50
2019-03-06T09:33:29.522Z,60.60
2019-03-06T09:38:20.870Z,56.60
2019-03-06T09:43:12.256Z,52.70
2019-03-06T09:48:03.699Z,56.50
2019-03-06T09:52:55.094Z,51.30
2019-03-06T09:57:46.479Z,50.30
2019-03-06T10:02:40.064Z,48.70
2019-03-06T10:07:31.507Z,48.90
2019-03-06T10:12:23.351Z,45.30
2019-03-06T10:17:14.342Z,45.30
2019-03-06T10:22:05.784Z,37.50
2019-03-06T10:26:57.732Z,40.50
2019-03-06T10:31:48.627Z,37.80
2019-03-06T10:36:40.015Z,38.40
2019-03-06T10:41:31.419Z,35.80
2019-03-06T10:46:22.777Z,31.70
2019-03-06T10:51:14.160Z,32.80
2019-03-06T10:56:05.562Z,25.60
2019-03-06T11:00:56.932Z,33.00
2019-03-06T11:05:50.552Z,29.70
2019-03-06T11:10:42.022Z,26.70
2019-03-06T11:15:33.393Z,24.10
2019-03-06T11:20:24.775Z,27.00
2019-03-06T11:25:16.221Z,26.90
2019-03-06T11:30:09.762Z,28.80
2019-03-06T11:35:01.242Z,23.50
2019-03-06T11:39:52.615Z,23.40
2019-03-06T11:44:44.036Z,23.20
2019-03-06T11:49:37.595Z,19.80
2019-03-06T11:54:31.255Z,21.70
2019-03-06T11:59:22.777Z,19.90
2019-03-06T12:04:16.327Z,18.80
2019-03-06T12:09:09.971Z,17.60
2019-03-06T12:14:01.494Z,17.90
2019-03-06T12:18:52.869Z,15.80
2019-03-06T12:23:44.315Z,16.80
2019-03-06T12:28:35.959Z,17.00
2019-03-06T12:33:26.994Z,16.40
2019-03-06T12:38:18.441Z,12.60
2019-03-06T12:43:09.843Z,13.20
2019-03-06T12:48:07.979Z,10.30
2019-03-06T12:52:59.376Z,12.60
2019-03-06T12:58:00.024Z,15.60
2019-03-06T13:02:42.569Z,16.20
2019-03-06T13:07:33.640Z,16.40
2019-03-06T13:12:29.050Z,12.70
2019-03-06T13:17:18.618Z,11.90
2019-03-06T13:22:13.014Z,10.00
2019-03-06T13:27:01.375Z,12.90
2019-03-06T13:31:52.778Z,9.30
2019-03-06T13:36:44.167Z,8.10
2019-03-06T13:41:35.594Z,6.30
2019-03-06T13:46:29.109Z,9.40
2019-03-06T13:51:20.579Z,10.30
2019-03-06T13:56:14.159Z,9.30
2019-03-06T14:01:05.640Z,10.60
2019-03-06T14:05:57.056Z,12.90
2019-03-06T14:10:48.432Z,12.30
2019-03-06T14:15:40.088Z,11.70
2019-03-06T14:20:31.197Z,11.80
2019-03-06T14:25:22.577Z,12.20
2019-03-06T14:30:14.010Z,13.70
2019-03-06T14:35:05.329Z,13.00
2019-03-06T14:39:59.300Z,14.00
2019-03-06T14:44:48.643Z,12.50
2019-03-06T14:49:39.509Z,14.40
2019-03-06T14:54:30.872Z,15.60
2019-03-06T14:59:22.313Z,15.90
2019-03-06T15:04:13.907Z,14.20
2019-03-06T15:09:05.071Z,16.70
2019-03-06T15:13:58.620Z,15.00
2019-03-06T15:18:50.094Z,15.40
2019-03-06T15:23:42.014Z,16.90
2019-03-06T15:28:32.871Z,16.70
2019-03-06T15:33:24.266Z,16.00
2019-03-06T15:38:15.626Z,16.70
2019-03-06T15:43:09.238Z,16.50
2019-03-06T15:48:00.649Z,16.50
2019-03-06T15:52:52.099Z,16.80
2019-03-06T15:57:43.488Z,15.90
2019-03-06T16:02:35.191Z,16.50
2019-03-06T16:07:28.427Z,16.20
2019-03-06T16:12:19.823Z,16.50
2019-03-06T16:17:11.259Z,17.30
2019-03-06T16:22:07.135Z,17.90
2019-03-06T16:27:00.796Z,17.50
2019-03-06T16:31:52.308Z,17.50
2019-03-06T16:36:43.658Z,17.50
2019-03-06T16:41:35.057Z,18.20
2019-03-06T16:46:26.408Z,18.40
2019-03-06T16:51:17.826Z,18.70
2019-03-06T16:56:11.403Z,20.10
2019-03-06T17:01:02.865Z,17.70
2019-03-06T17:05:55.157Z,20.00
2019-03-06T17:10:45.731Z,19.50
2019-03-06T17:15:37.079Z,20.90
2019-03-06T17:20:28.410Z,20.90
2019-03-06T17:25:19.859Z,19.20
2019-03-06T17:30:11.202Z,25.00
2019-03-06T17:35:02.659Z,26.10
2019-03-06T17:39:54.068Z,26.40
2019-03-06T17:44:45.465Z,24.70
2019-03-06T17:49:39.034Z,25.90
2019-03-06T17:54:30.557Z,25.40
2019-03-06T17:59:21.918Z,25.80
2019-03-06T18:04:15.518Z,26.30
2019-03-06T18:09:06.978Z,28.40
2019-03-06T18:13:58.398Z,26.80
2019-03-06T18:18:49.765Z,22.60
2019-03-06T18:23:41.128Z,26.50
2019-03-06T18:28:32.545Z,25.20
2019-03-06T18:33:23.933Z,24.10
2019-03-06T18:38:15.937Z,26.20
2019-03-06T18:43:06.768Z,27.50
2019-03-06T18:47:58.122Z,30.10
2019-03-06T18:52:49.575Z,30.70
2019-03-06T18:57:40.957Z,30.90
2019-03-06T19:02:32.335Z,31.30
2019-03-06T19:07:23.755Z,29.30
2019-03-06T19:12:15.161Z,28.40
2019-03-06T19:17:06.590Z,29.30
2019-03-06T19:22:00.171Z,28.90
2019-03-06T19:26:51.678Z,20.80
2019-03-06T19:31:43.017Z,19.80
2019-03-06T19:36:36.595Z,17.60
2019-03-06T19:41:28.449Z,18.30
2019-03-06T19:46:19.595Z,17.40
2019-03-06T19:51:13.092Z,16.00
2019-03-06T19:56:04.634Z,17.10
2019-03-06T20:00:58.183Z,16.40
2019-03-06T20:05:49.642Z,16.30
2019-03-06T20:10:41.128Z,15.70
2019-03-06T20:15:32.539Z,16.80
2019-03-06T20:20:26.000Z,14.50
2019-03-06T20:25:17.460Z,16.70
2019-03-06T20:30:08.892Z,15.40
2019-03-06T20:35:04.725Z,16.70
2019-03-06T20:39:56.210Z,14.50
2019-03-06T20:44:47.625Z,15.30
2019-03-06T20:49:39.017Z,14.60
2019-03-06T20:54:30.474Z,15.10
2019-03-06T20:59:23.987Z,14.70
2019-03-06T21:04:17.642Z,15.60
2019-03-06T21:09:09.089Z,16.90
2019-03-06T21:14:00.545Z,17.10
2019-03-06T21:18:54.072Z,17.10
2019-03-06T21:23:45.575Z,16.80
2019-03-06T21:28:39.159Z,17.60
2019-03-06T21:33:30.701Z,17.80
2019-03-06T21:38:24.221Z,17.30
2019-03-06T21:43:15.723Z,17.20
2019-03-06T21:48:07.091Z,18.90
2019-03-06T21:53:07.519Z,18.80
2019-03-06T21:58:01.305Z,18.70
2019-03-06T22:02:52.900Z,21.00
2019-03-06T22:07:44.216Z,22.70
2019-03-06T22:12:37.784Z,22.80
2019-03-06T22:17:29.254Z,22.00
2019-03-06T22:22:20.631Z,21.30
2019-03-06T22:27:14.257Z,25.10
2019-03-06T22:32:05.719Z,25.30
2019-03-06T22:36:57.142Z,26.50
2019-03-06T22:41:48.534Z,24.20
2019-03-06T22:46:42.099Z,23.80
2019-03-06T22:51:33.713Z,24.60
2019-03-06T22:56:25.026Z,25.50
2019-03-06T23:01:18.569Z,24.80
2019-03-06T23:06:10.060Z,25.50
2019-03-06T23:11:03.753Z,28.50
2019-03-06T23:15:55.270Z,28.00
2019-03-06T23:20:46.617Z,29.80
2019-03-06T23:25:42.538Z,29.00
2019-03-06T23:30:33.962Z,29.80
2019-03-06T23:35:25.364Z,33.30
2019-03-06T23:40:16.840Z,34.60
2019-03-06T23:45:08.262Z,33.60
2019-03-06T23:50:01.864Z,34.70
2019-03-06T23:54:53.350Z,34.30
2019-03-06T23:59:44.717Z,35.90
